| time (UTC) | temp C | wind direction | speed KPH | gust KPH | rain 1hr cm | rain 24hr cm | rain mn cm | humidity % | barometer mb |
| 20260906234602 | 17 | 331 | 4.8 | 16.1 | 0.00 | 0.46 | 0.25 | 71 | 1015.6 |
| 20260906233057 | 17 | 5 | 6.4 | 12.9 | 0.00 | 0.46 | 0.25 | 71 | 1015.8 |
| 20260906231551 | 17 | 296 | 4.8 | 14.5 | 0.00 | 0.46 | 0.25 | 71 | 1015.6 |
| 20260906224556 | 16 | 329 | 4.8 | 12.9 | 0.00 | 0.46 | 0.25 | 75 | 1015.9 |
| 20260906223054 | 16 | 282 | 8.0 | 14.5 | 0.00 | 0.46 | 0.25 | 74 | 1016.1 |
| 20260906221556 | 16 | 333 | 6.4 | 12.9 | 0.00 | 0.46 | 0.25 | 76 | 1016.3 |
| 20260906220059 | 16 | 272 | 8.0 | 14.5 | 0.00 | 0.46 | 0.25 | 77 | 1016.5 |
| 20260906214553 | 16 | 265 | 11.3 | 16.1 | 0.00 | 0.46 | 0.25 | 76 | 1016.7 |
| 20260906213105 | 16 | 272 | 9.7 | 14.5 | 0.00 | 0.46 | 0.25 | 75 | 1016.4 |
| 20260906211551 | 16 | 269 | 4.8 | 12.9 | 0.00 | 0.46 | 0.25 | 75 | 1016.4 |
| 20260906210100 | 16 | 266 | 9.7 | 14.5 | 0.00 | 0.46 | 0.25 | 75 | 1016.3 |
| 20260906204623 | 15 | 278 | 6.4 | 12.9 | 0.00 | 0.46 | 0.25 | 76 | 1016.3 |
| 20260906203101 | 15 | 265 | 8.0 | 12.9 | 0.00 | 0.46 | 0.25 | 75 | 1016.4 |
| 20260906201606 | 16 | 270 | 6.4 | 12.9 | 0.00 | 0.46 | 0.25 | 76 | 1016.5 |
| 20260906200051 | 16 | 275 | 6.4 | 12.9 | 0.00 | 0.46 | 0.25 | 75 | 1016.4 |
| 20260906194557 | 16 | 286 | 4.8 | 11.3 | 0.00 | 0.46 | 0.25 | 75 | 1016.5 |
| 20260906193055 | 16 | 55 | 1.6 | 4.8 | 0.00 | 0.46 | 0.25 | 75 | 1016.6 |
| 20260906191553 | 16 | 55 | 1.6 | 4.8 | 0.00 | 0.46 | 0.25 | 76 | 1016.9 |
| 20260906184558 | 15 | 38 | 6.4 | 17.7 | 0.00 | 0.46 | 0.25 | 77 | 1017.0 |
| 20260906183056 | 15 | 34 | 11.3 | 19.3 | 0.00 | 0.46 | 0.25 | 78 | 1017.2 |
| 20260906181556 | 15 | 40 | 17.7 | 22.5 | 0.00 | 0.46 | 0.25 | 81 | 1017.1 |
| 20260906180119 | 15 | 28 | 19.3 | 30.6 | 0.00 | 0.46 | 0.25 | 81 | 1017.1 |
| 20260906174604 | 14 | 26 | 20.9 | 32.2 | 0.00 | 0.46 | 0.25 | 83 | 1016.9 |
| 20260906173053 | 14 | 9 | 24.1 | 32.2 | 0.00 | 0.46 | 0.25 | 80 | 1017.5 |
| 20260906171552 | 14 | 5 | 20.9 | 29.0 | 0.00 | 0.46 | 0.25 | 82 | 1017.7 |
| 20260906170106 | 14 | 340 | 19.3 | 29.0 | 0.00 | 0.46 | 0.25 | 85 | 1018.1 |
| 20260906164556 | 13 | 360 | 16.1 | 20.9 | 0.00 | 0.46 | 0.25 | 90 | 1017.9 |
| 20260906163053 | 12 | 18 | 14.5 | 17.7 | 0.00 | 0.46 | 0.25 | 90 | 1018.1 |
| 20260906161556 | 12 | 295 | 1.6 | 6.4 | 0.00 | 0.46 | 0.25 | 90 | 1019.3 |
| 20260906160100 | 12 | 286 | 3.2 | 9.7 | 0.00 | 0.46 | 0.25 | 91 | 1019.4 |
| 20260906154602 | 12 | 299 | 3.2 | 6.4 | 0.00 | 0.46 | 0.25 | 90 | 1018.9 |
| 20260906153056 | 12 | 343 | 6.4 | 14.5 | 0.00 | 0.46 | 0.25 | 91 | 1018.9 |
| 20260906151603 | 11 | 306 | 1.6 | 11.3 | 0.00 | 0.46 | 0.25 | 91 | 1019.4 |
| 20260906150106 | 11 | 308 | 4.8 | 16.1 | 0.03 | 0.46 | 0.25 | 91 | 1019.2 |
| 20260906144553 | 11 | 297 | 6.4 | 22.5 | 0.10 | 0.48 | 0.25 | 91 | 1019.3 |
| 20260906143112 | 11 | 329 | 9.7 | 22.5 | 0.10 | 0.48 | 0.25 | 91 | 1019.4 |
| 20260906141603 | 11 | 311 | 12.9 | 27.4 | 0.10 | 0.48 | 0.25 | 91 | 1019.6 |
| 20260906140100 | 11 | 313 | 17.7 | 30.6 | 0.08 | 0.46 | 0.23 | 90 | 1019.7 |
| 20260906134606 | 11 | 275 | 25.7 | 38.6 | 0.00 | 0.41 | 0.15 | 89 | 1019.9 |
| 20260906133111 | 12 | 273 | 22.5 | 30.6 | 0.00 | 0.41 | 0.15 | 89 | 1019.7 |
| 20260906131605 | 12 | 286 | 16.1 | 20.9 | 0.00 | 0.41 | 0.15 | 88 | 1019.5 |
| 20260906130105 | 12 | 360 | 6.4 | 9.7 | 0.00 | 0.41 | 0.15 | 87 | 1018.7 |
| 20260906124601 | 12 | 342 | 1.6 | 9.7 | 0.00 | 0.43 | 0.15 | 87 | 1019.2 |
| 20260906123101 | 12 | 322 | 6.4 | 14.5 | 0.00 | 0.43 | 0.15 | 86 | 1019.4 |
| 20260906121555 | 12 | 336 | 9.7 | 22.5 | 0.00 | 0.43 | 0.15 | 87 | 1019.5 |
| 20260906120121 | 12 | 332 | 20.9 | 29.0 | 0.00 | 0.43 | 0.15 | 88 | 1019.2 |
| 20260906114617 | 12 | 294 | 12.9 | 25.7 | 0.00 | 0.46 | 0.15 | 88 | 1019.2 |
| 20260906113059 | 12 | 335 | 16.1 | 25.7 | 0.00 | 0.46 | 0.15 | 89 | 1019.6 |
| 20260906111607 | 12 | 285 | 24.1 | 45.1 | 0.00 | 0.46 | 0.15 | 88 | 1019.8 |
| 20260906110053 | 12 | 325 | 1.6 | 4.8 | 0.00 | 0.46 | 0.15 | 88 | 1019.1 |
| 20260906104602 | 13 | 44 | 6.4 | 19.3 | 0.00 | 0.46 | 0.15 | 88 | 1018.7 |
| 20260906103055 | 12 | 47 | 9.7 | 19.3 | 0.00 | 0.46 | 0.15 | 88 | 1018.6 |
| 20260906101554 | 12 | 95 | 3.2 | 6.4 | 0.00 | 0.46 | 0.15 | 88 | 1019.0 |
| 20260906100059 | 12 | 0 | 0.0 | 17.7 | 0.00 | 0.46 | 0.15 | 88 | 1019.4 |
| 20260906094602 | 12 | 27 | 16.1 | 24.1 | 0.00 | 0.46 | 0.15 | 88 | 1019.2 |
| 20260906093057 | 12 | 22 | 19.3 | 33.8 | 0.00 | 0.46 | 0.15 | 88 | 1019.2 |
| 20260906091553 | 12 | 34 | 20.9 | 33.8 | 0.00 | 0.46 | 0.15 | 89 | 1019.0 |
| 20260906090100 | 12 | 19 | 30.6 | 40.2 | 0.00 | 0.46 | 0.15 | 91 | 1019.1 |
| 20260906084557 | 12 | 19 | 25.7 | 35.4 | 0.00 | 0.46 | 0.15 | 91 | 1019.1 |
| 20260906083055 | 12 | 5 | 22.5 | 29.0 | 0.08 | 0.46 | 0.15 | 91 | 1019.5 |
| 20260906081557 | 12 | 317 | 9.7 | 20.9 | 0.15 | 0.46 | 0.15 | 91 | 1020.6 |
| 20260906080056 | 12 | 323 | 9.7 | 22.5 | 0.15 | 0.46 | 0.15 | 90 | 1020.9 |
| 20260906074558 | 12 | 303 | 16.1 | 27.4 | 0.15 | 0.46 | 0.15 | 90 | 1020.9 |
| 20260906073055 | 12 | 290 | 19.3 | 32.2 | 0.08 | 0.38 | 0.08 | 89 | 1021.4 |
| 20260906071553 | 12 | 331 | 20.9 | 32.2 | 0.00 | 0.30 | 0.00 | 89 | 1019.9 |
| 20260906070104 | 12 | 360 | 25.7 | 35.4 | 0.00 | 0.30 | 0.00 | 90 | 1020.0 |
| 20260906064556 | 12 | 313 | 12.9 | 25.7 | 0.00 | 0.30 | 0.00 | 90 | 1021.1 |
| 20260906063056 | 12 | 350 | 20.9 | 27.4 | 0.15 | 0.30 | 0.00 | 90 | 1020.4 |
| 20260906061556 | 12 | 349 | 19.3 | 29.0 | 0.15 | 0.30 | 0.00 | 90 | 1020.7 |
| 20260906060053 | 12 | 314 | 19.3 | 29.0 | 0.15 | 0.30 | 0.00 | 89 | 1021.0 |
| 20260906054616 | 12 | 309 | 20.9 | 30.6 | 0.13 | 0.28 | 0.28 | 88 | 1021.3 |
| 20260906053054 | 12 | 284 | 16.1 | 29.0 | 0.00 | 0.15 | 0.15 | 87 | 1021.9 |
| 20260906051553 | 12 | 332 | 24.1 | 30.6 | 0.00 | 0.15 | 0.15 | 87 | 1020.8 |
| 20260906050107 | 13 | 312 | 14.5 | 22.5 | 0.00 | 0.15 | 0.15 | 87 | 1021.0 |
| 20260906044600 | 13 | 333 | 16.1 | 25.7 | 0.00 | 0.15 | 0.15 | 87 | 1020.8 |
| 20260906043054 | 13 | 331 | 17.7 | 24.1 | 0.00 | 0.15 | 0.15 | 86 | 1020.4 |
| 20260906041605 | 13 | 329 | 12.9 | 20.9 | 0.00 | 0.15 | 0.15 | 86 | 1020.8 |
| 20260906040109 | 13 | 349 | 16.1 | 22.5 | 0.03 | 0.15 | 0.15 | 85 | 1020.1 |
| 20260906034556 | 13 | 332 | 17.7 | 22.5 | 0.05 | 0.15 | 0.15 | 84 | 1020.4 |
| 20260906033056 | 13 | 290 | 11.3 | 29.0 | 0.05 | 0.15 | 0.15 | 84 | 1020.5 |
| 20260906031614 | 13 | 5 | 33.8 | 41.8 | 0.05 | 0.15 | 0.15 | 82 | 1018.2 |
| 20260906030059 | 15 | 276 | 4.8 | 19.3 | 0.03 | 0.13 | 0.13 | 76 | 1021.4 |
| 20260906024605 | 16 | 306 | 12.9 | 19.3 | 0.00 | 0.10 | 0.10 | 70 | 1020.2 |
| 20260906023100 | 16 | 293 | 14.5 | 25.7 | 0.00 | 0.10 | 0.10 | 67 | 1018.9 |
| 20260906021552 | 16 | 332 | 19.3 | 27.4 | 0.00 | 0.10 | 0.10 | 66 | 1018.3 |
| 20260906014555 | 17 | 350 | 17.7 | 25.7 | 0.00 | 0.10 | 0.10 | 63 | 1018.5 |
| 20260906013056 | 17 | 350 | 19.3 | 29.0 | 0.00 | 0.10 | 0.10 | 62 | 1018.5 |
| 20260906011553 | 18 | 352 | 22.5 | 30.6 | 0.00 | 0.10 | 0.10 | 60 | 1018.4 |
| 20260906010054 | 18 | 352 | 22.5 | 32.2 | 0.00 | 0.10 | 0.10 | 60 | 1018.2 |
| 20260906004550 | 18 | 9 | 19.3 | 30.6 | 0.00 | 0.10 | 0.10 | 57 | 1018.4 |
| 20260906003054 | 19 | 11 | 20.9 | 27.4 | 0.00 | 0.10 | 0.10 | 55 | 1018.2 |
| 20260906001553 | 19 | 360 | 14.5 | 22.5 | 0.00 | 0.10 | 0.10 | 54 | 1018.5 |
| 20260906000108 | 19 | 345 | 16.1 | 24.1 | 0.00 | 0.10 | 0.10 | 54 | 1018.6 |